createdAt,value
2019-05-29T00:00:57.083Z,75.94
2019-05-29T00:03:24.820Z,76.29
2019-05-29T00:05:52.472Z,77.10
2019-05-29T00:08:20.142Z,77.71
2019-05-29T00:10:48.059Z,78.52
2019-05-29T00:13:15.819Z,79.14
2019-05-29T00:15:43.483Z,80.23
2019-05-29T00:18:12.392Z,81.31
2019-05-29T00:20:40.175Z,81.23
2019-05-29T00:23:08.462Z,82.39
2019-05-29T00:25:36.231Z,82.54
2019-05-29T00:28:04.025Z,82.51
2019-05-29T00:30:31.736Z,82.27
2019-05-29T00:32:59.384Z,82.98
2019-05-29T00:35:27.066Z,83.16
2019-05-29T00:37:54.742Z,82.50
2019-05-29T00:40:22.473Z,82.77
2019-05-29T00:42:50.139Z,83.77
2019-05-29T00:45:17.880Z,84.54
2019-05-29T00:47:45.539Z,84.07
2019-05-29T00:50:14.135Z,82.95
2019-05-29T00:52:41.962Z,83.55
2019-05-29T00:55:10.499Z,82.65
2019-05-29T00:57:38.356Z,82.81
2019-05-29T01:00:06.037Z,81.66
2019-05-29T01:02:33.903Z,83.55
2019-05-29T01:05:01.640Z,82.16
2019-05-29T01:07:29.336Z,83.16
2019-05-29T01:09:56.991Z,82.63
2019-05-29T01:12:24.663Z,82.66
2019-05-29T01:14:52.379Z,83.14
2019-05-29T01:17:20.045Z,83.38
2019-05-29T01:19:47.702Z,83.94
2019-05-29T01:22:16.146Z,82.34
2019-05-29T01:24:44.092Z,81.11
2019-05-29T01:27:12.600Z,80.99
2019-05-29T01:29:40.372Z,80.67
2019-05-29T01:32:08.042Z,80.29
2019-05-29T01:34:35.693Z,81.50
2019-05-29T01:37:03.384Z,81.86
2019-05-29T01:39:31.108Z,80.57
2019-05-29T01:41:58.871Z,82.51
2019-05-29T01:44:27.718Z,81.84
2019-05-29T01:46:55.779Z,82.37
2019-05-29T01:49:23.804Z,81.76
2019-05-29T01:51:51.748Z,83.69
2019-05-29T01:54:19.736Z,83.94
2019-05-29T01:56:47.531Z,84.74
2019-05-29T01:59:15.713Z,84.72
2019-05-29T02:01:43.524Z,83.08
2019-05-29T02:04:11.337Z,84.21
2019-05-29T02:06:38.999Z,82.88
2019-05-29T02:09:06.911Z,83.27
2019-05-29T02:11:34.574Z,81.50
2019-05-29T02:14:02.217Z,81.07
2019-05-29T02:16:30.010Z,81.43
2019-05-29T02:18:57.657Z,83.38
2019-05-29T02:21:25.309Z,82.57
2019-05-29T02:23:52.967Z,83.59
2019-05-29T02:26:20.622Z,84.08
2019-05-29T02:28:48.376Z,85.00
2019-05-29T02:31:17.651Z,84.78
2019-05-29T02:33:45.388Z,84.60
2019-05-29T02:36:13.047Z,85.12
2019-05-29T02:38:40.693Z,86.16
2019-05-29T02:41:08.363Z,84.11
2019-05-29T02:43:36.014Z,84.95
2019-05-29T02:46:03.686Z,83.01
2019-05-29T02:48:31.837Z,81.74
2019-05-29T02:50:59.564Z,80.45
2019-05-29T02:53:28.668Z,80.28
2019-05-29T02:55:56.607Z,79.82
2019-05-29T02:58:25.842Z,82.08
2019-05-29T03:00:53.852Z,82.94
2019-05-29T03:03:21.710Z,83.89
2019-05-29T03:05:49.473Z,84.53
2019-05-29T03:08:17.147Z,82.27
2019-05-29T03:10:44.867Z,81.12
2019-05-29T03:13:12.508Z,79.87
2019-05-29T03:15:40.157Z,78.62
2019-05-29T03:18:07.816Z,79.90
2019-05-29T03:20:35.471Z,79.44
2019-05-29T03:23:03.254Z,80.22
2019-05-29T03:25:32.458Z,79.46
2019-05-29T03:28:00.427Z,78.71
2019-05-29T03:30:31.627Z,78.38
2019-05-29T03:32:57.659Z,79.11
2019-05-29T03:35:28.633Z,79.14
2019-05-29T03:37:58.670Z,79.83
2019-05-29T03:40:26.337Z,79.66
2019-05-29T03:42:53.749Z,79.01
2019-05-29T03:45:21.414Z,80.59
2019-05-29T03:47:49.074Z,81.40
2019-05-29T03:50:17.030Z,80.74
2019-05-29T03:52:44.705Z,80.74
2019-05-29T03:55:12.384Z,81.26
2019-05-29T03:57:40.036Z,81.09
2019-05-29T04:00:07.696Z,81.64
2019-05-29T04:02:36.151Z,80.79
2019-05-29T04:05:05.017Z,83.78
2019-05-29T04:07:33.670Z,83.38
2019-05-29T04:10:02.030Z,83.32
2019-05-29T04:12:30.039Z,83.28
2019-05-29T04:14:59.208Z,83.35
2019-05-29T04:17:27.276Z,82.89
2019-05-29T04:19:55.132Z,83.05
2019-05-29T04:22:22.791Z,83.78
2019-05-29T04:24:50.448Z,83.04
2019-05-29T04:27:18.202Z,83.45
2019-05-29T04:29:45.902Z,81.17
2019-05-29T04:32:13.703Z,82.40
2019-05-29T04:34:41.412Z,80.60
2019-05-29T04:37:09.069Z,81.06
2019-05-29T04:39:37.009Z,80.47
2019-05-29T04:42:05.254Z,82.52
2019-05-29T04:44:33.890Z,81.12
2019-05-29T04:47:10.852Z,80.63
2019-05-29T04:49:33.650Z,80.85
2019-05-29T04:52:01.296Z,81.30
2019-05-29T04:54:29.345Z,80.29
2019-05-29T04:56:57.139Z,81.18
2019-05-29T04:59:24.793Z,81.41
2019-05-29T05:01:52.440Z,80.62
2019-05-29T05:04:20.097Z,81.79
2019-05-29T05:06:47.748Z,80.81
2019-05-29T05:09:15.502Z,79.43
2019-05-29T05:11:43.162Z,80.39
2019-05-29T05:14:10.887Z,80.26
2019-05-29T05:16:38.540Z,79.69
2019-05-29T05:19:06.201Z,79.65
2019-05-29T05:21:34.084Z,77.17
2019-05-29T05:24:01.800Z,77.95
2019-05-29T05:26:30.069Z,79.29
2019-05-29T05:28:57.911Z,78.05
2019-05-29T05:31:25.646Z,78.94
2019-05-29T05:33:53.372Z,77.75
2019-05-29T05:36:21.036Z,77.24
2019-05-29T05:38:48.696Z,78.35
2019-05-29T05:41:16.700Z,77.34
2019-05-29T05:43:44.566Z,77.13
2019-05-29T05:46:12.304Z,77.18
2019-05-29T05:48:39.956Z,75.21
2019-05-29T05:51:07.606Z,75.08
2019-05-29T05:53:35.458Z,74.14
2019-05-29T05:56:03.222Z,73.60
2019-05-29T05:58:31.673Z,71.97
2019-05-29T06:00:59.428Z,73.17
2019-05-29T06:03:27.268Z,73.77
2019-05-29T06:05:54.918Z,73.03
2019-05-29T06:08:22.576Z,70.89
2019-05-29T06:10:51.301Z,71.12
2019-05-29T06:13:19.167Z,72.99
2019-05-29T06:15:46.969Z,69.96
2019-05-29T06:18:21.081Z,71.29
2019-05-29T06:20:44.104Z,70.99
2019-05-29T06:23:11.786Z,71.63
2019-05-29T06:25:40.712Z,70.52
2019-05-29T06:28:08.931Z,71.64
2019-05-29T06:30:38.862Z,70.58
2019-05-29T06:33:05.951Z,72.14
2019-05-29T06:35:34.133Z,71.64
2019-05-29T06:38:03.281Z,67.88
2019-05-29T06:40:31.002Z,69.44
2019-05-29T06:42:58.662Z,69.00
2019-05-29T06:45:26.500Z,68.83
2019-05-29T06:47:54.177Z,68.66
2019-05-29T06:50:22.013Z,64.54
2019-05-29T06:52:49.747Z,65.92
2019-05-29T06:55:17.617Z,63.78
2019-05-29T06:57:45.591Z,65.02
2019-05-29T07:00:13.472Z,64.36
2019-05-29T07:02:42.546Z,64.46
2019-05-29T07:05:10.412Z,64.64
2019-05-29T07:07:38.348Z,61.00
2019-05-29T07:10:06.220Z,61.21
2019-05-29T07:12:33.953Z,63.47
2019-05-29T07:15:01.624Z,62.08
2019-05-29T07:17:29.430Z,63.68
2019-05-29T07:20:03.400Z,62.56
2019-05-29T07:22:26.517Z,61.12
2019-05-29T07:24:54.171Z,61.06
2019-05-29T07:27:21.834Z,61.82
2019-05-29T07:29:49.585Z,59.12
2019-05-29T07:32:17.443Z,59.70
2019-05-29T07:34:56.719Z,60.49
2019-05-29T07:37:14.524Z,59.04
2019-05-29T07:39:42.181Z,57.86
2019-05-29T07:42:09.937Z,57.71
2019-05-29T07:44:38.028Z,58.13
2019-05-29T07:47:09.312Z,58.94
2019-05-29T07:49:38.925Z,58.40
2019-05-29T07:52:04.849Z,57.06
2019-05-29T07:54:32.742Z,57.38
2019-05-29T07:57:00.395Z,56.34
2019-05-29T07:59:28.734Z,56.38
2019-05-29T08:01:56.569Z,56.89
2019-05-29T08:04:24.269Z,56.51
2019-05-29T08:06:54.494Z,57.65
2019-05-29T08:09:21.373Z,56.95
2019-05-29T08:11:50.120Z,57.67
2019-05-29T08:14:17.952Z,58.97
2019-05-29T08:16:46.055Z,56.25
2019-05-29T08:19:13.902Z,57.67
2019-05-29T08:21:42.689Z,56.84
2019-05-29T08:24:10.450Z,54.98
2019-05-29T08:26:38.132Z,55.02
2019-05-29T08:29:05.801Z,55.35
2019-05-29T08:31:33.553Z,55.56
2019-05-29T08:34:01.203Z,55.54
2019-05-29T08:36:28.936Z,55.61
2019-05-29T08:38:56.588Z,54.93
2019-05-29T08:41:24.262Z,54.78
2019-05-29T08:43:52.768Z,54.75
2019-05-29T08:46:20.697Z,53.02
2019-05-29T08:48:48.342Z,52.69
2019-05-29T08:51:16.053Z,51.19
2019-05-29T08:53:44.326Z,51.69
2019-05-29T08:56:12.193Z,50.89
2019-05-29T08:58:40.159Z,50.54
2019-05-29T09:01:08.124Z,50.65
2019-05-29T09:03:35.777Z,50.32
2019-05-29T09:06:08.905Z,52.34
2019-05-29T09:08:32.809Z,49.70
2019-05-29T09:11:00.473Z,52.53
2019-05-29T09:13:28.339Z,49.92
2019-05-29T09:15:56.000Z,50.95
2019-05-29T09:18:25.565Z,49.65
2019-05-29T09:21:02.884Z,50.83
2019-05-29T09:23:23.334Z,51.15
2019-05-29T09:25:51.120Z,50.51
2019-05-29T09:28:20.498Z,53.91
2019-05-29T09:30:48.185Z,48.24
2019-05-29T09:33:17.998Z,49.92
2019-05-29T09:35:45.245Z,51.63
2019-05-29T09:38:12.900Z,49.35
2019-05-29T09:40:40.545Z,48.12
2019-05-29T09:43:08.198Z,46.33
2019-05-29T09:45:35.846Z,46.41
2019-05-29T09:48:03.733Z,46.76
2019-05-29T09:50:48.815Z,47.42
2019-05-29T09:53:02.669Z,48.33
2019-05-29T09:55:30.316Z,49.29
2019-05-29T09:57:58.694Z,49.82
2019-05-29T10:00:26.723Z,49.65
2019-05-29T10:02:55.463Z,47.59
2019-05-29T10:05:23.319Z,44.58
2019-05-29T10:07:50.982Z,44.80
2019-05-29T10:10:18.720Z,45.54
2019-05-29T10:12:46.376Z,43.59
2019-05-29T10:15:14.032Z,44.34
2019-05-29T10:17:41.718Z,42.36
2019-05-29T10:20:09.438Z,45.17
2019-05-29T10:22:37.128Z,47.11
2019-05-29T10:25:05.853Z,50.29
2019-05-29T10:27:33.639Z,48.59
2019-05-29T10:30:01.297Z,46.81
2019-05-29T10:32:29.035Z,46.33
2019-05-29T10:34:56.697Z,47.75
2019-05-29T10:37:24.354Z,49.02
2019-05-29T10:39:52.957Z,49.57
2019-05-29T10:42:21.042Z,49.06
2019-05-29T10:44:49.115Z,48.02
2019-05-29T10:47:17.942Z,47.52
2019-05-29T10:49:45.664Z,46.88
2019-05-29T10:52:16.643Z,46.81
2019-05-29T10:54:44.036Z,47.53
2019-05-29T10:57:11.841Z,46.92
2019-05-29T10:59:39.772Z,47.03
2019-05-29T11:02:07.675Z,47.75
2019-05-29T11:04:35.332Z,48.53
2019-05-29T11:07:03.001Z,44.03
2019-05-29T11:09:43.282Z,42.62
2019-05-29T11:12:00.045Z,42.17
2019-05-29T11:14:27.702Z,42.65
2019-05-29T11:16:55.344Z,40.43
2019-05-29T11:19:26.076Z,41.33
2019-05-29T11:21:53.846Z,41.60
2019-05-29T11:24:21.752Z,42.05
2019-05-29T11:26:50.308Z,43.20
2019-05-29T11:29:18.164Z,41.90
2019-05-29T11:31:46.059Z,40.84
2019-05-29T11:34:13.792Z,42.90
2019-05-29T11:36:41.448Z,41.71
2019-05-29T11:39:09.118Z,40.52
2019-05-29T11:41:36.763Z,41.65
2019-05-29T11:44:04.555Z,40.54
2019-05-29T11:46:32.316Z,39.63
2019-05-29T11:49:00.053Z,39.36
2019-05-29T11:51:27.705Z,40.09
2019-05-29T11:53:55.812Z,41.40
2019-05-29T11:56:23.619Z,41.10
2019-05-29T11:58:51.310Z,45.87
2019-05-29T12:01:19.182Z,41.25
2019-05-29T12:04:09.598Z,42.48
2019-05-29T12:06:16.429Z,42.09
2019-05-29T12:08:44.165Z,41.94
2019-05-29T12:11:11.816Z,40.71
2019-05-29T12:13:39.471Z,42.54
2019-05-29T12:16:07.169Z,42.41
2019-05-29T12:18:34.952Z,40.76
2019-05-29T12:21:02.974Z,40.52
2019-05-29T12:23:30.803Z,39.92
2019-05-29T12:26:16.609Z,40.35
2019-05-29T12:28:27.856Z,40.50
2019-05-29T12:30:56.786Z,42.11
2019-05-29T12:33:24.744Z,40.66
2019-05-29T12:35:52.896Z,42.61
2019-05-29T12:38:20.648Z,42.82
2019-05-29T12:40:48.291Z,41.96
2019-05-29T12:43:26.468Z,39.50
2019-05-29T12:45:45.323Z,39.97
2019-05-29T12:48:15.322Z,39.66
2019-05-29T12:50:42.608Z,37.66
2019-05-29T12:53:28.294Z,39.07
2019-05-29T12:55:39.712Z,37.84
2019-05-29T12:58:07.405Z,38.22
2019-05-29T13:00:35.303Z,36.81
2019-05-29T13:03:03.208Z,36.81
2019-05-29T13:05:31.473Z,38.34
2019-05-29T13:08:00.696Z,38.46
2019-05-29T13:10:30.898Z,39.16
2019-05-29T13:13:04.077Z,36.39
2019-05-29T13:15:27.576Z,35.68
2019-05-29T13:18:01.857Z,37.62
2019-05-29T13:20:25.199Z,34.63
2019-05-29T13:22:52.922Z,37.43
2019-05-29T13:25:20.614Z,36.28
2019-05-29T13:27:48.309Z,35.43
2019-05-29T13:30:15.982Z,38.15
2019-05-29T13:32:43.742Z,35.40
2019-05-29T13:35:11.492Z,35.56
2019-05-29T13:37:39.425Z,36.51
2019-05-29T13:40:08.526Z,36.47
2019-05-29T13:42:36.389Z,38.78
2019-05-29T13:45:11.064Z,37.05
2019-05-29T13:47:33.446Z,37.28
2019-05-29T13:50:05.857Z,37.96
2019-05-29T13:52:30.522Z,37.96
2019-05-29T13:54:59.217Z,37.63
2019-05-29T13:57:27.044Z,36.96
2019-05-29T13:59:54.708Z,35.60
2019-05-29T14:02:22.377Z,36.48
2019-05-29T14:04:50.037Z,36.59
2019-05-29T14:07:17.712Z,36.59
2019-05-29T14:09:45.376Z,38.09
2019-05-29T14:12:13.092Z,37.43
2019-05-29T14:14:40.817Z,39.48
2019-05-29T14:17:08.857Z,39.04
2019-05-29T14:19:36.681Z,39.04
2019-05-29T14:22:05.028Z,36.58
2019-05-29T14:24:33.007Z,35.24
2019-05-29T14:27:01.610Z,35.16
2019-05-29T14:29:29.512Z,36.75
2019-05-29T14:31:57.165Z,34.36
2019-05-29T14:34:24.811Z,36.45
2019-05-29T14:36:52.640Z,36.65
2019-05-29T14:39:20.286Z,36.33
2019-05-29T14:41:48.120Z,34.65
2019-05-29T14:44:17.221Z,34.27
2019-05-29T14:46:45.364Z,35.81
2019-05-29T14:49:13.521Z,34.84
2019-05-29T14:51:41.390Z,35.04
2019-05-29T14:54:09.235Z,35.48
2019-05-29T14:56:37.323Z,35.81
2019-05-29T14:59:05.655Z,35.81
2019-05-29T15:01:34.540Z,34.65
2019-05-29T15:04:03.507Z,37.19
2019-05-29T15:06:31.520Z,35.57
2019-05-29T15:08:59.167Z,34.50
2019-05-29T15:11:26.857Z,35.71
2019-05-29T15:13:54.509Z,36.48
2019-05-29T15:16:22.245Z,35.12
2019-05-29T15:18:50.027Z,35.04
2019-05-29T15:21:17.793Z,34.09
2019-05-29T15:23:45.444Z,34.09
2019-05-29T15:26:13.724Z,34.41
2019-05-29T15:28:41.577Z,34.59
2019-05-29T15:31:10.433Z,33.90
2019-05-29T15:33:38.265Z,33.52
2019-05-29T15:36:06.512Z,33.33
2019-05-29T15:38:34.484Z,33.85
2019-05-29T15:41:02.182Z,34.84
2019-05-29T15:43:29.834Z,33.27
2019-05-29T15:45:57.486Z,33.96
2019-05-29T15:48:25.445Z,34.54
2019-05-29T15:50:53.096Z,33.97
2019-05-29T15:53:20.764Z,33.50
2019-05-29T15:55:48.433Z,35.52
2019-05-29T15:58:17.783Z,34.45
2019-05-29T16:00:45.433Z,35.74
2019-05-29T16:03:13.584Z,33.05
2019-05-29T16:05:41.358Z,35.18
2019-05-29T16:08:09.919Z,34.15
2019-05-29T16:10:37.720Z,33.87
2019-05-29T16:13:05.372Z,35.22
2019-05-29T16:15:33.027Z,36.54
2019-05-29T16:18:00.681Z,33.57
2019-05-29T16:20:28.400Z,33.90
2019-05-29T16:22:56.057Z,33.90
2019-05-29T16:25:38.693Z,35.77
2019-05-29T16:27:53.065Z,35.57
2019-05-29T16:30:21.855Z,36.66
2019-05-29T16:32:49.701Z,36.09
2019-05-29T16:35:17.351Z,36.14
2019-05-29T16:37:45.222Z,34.22
2019-05-29T16:40:14.132Z,34.27
2019-05-29T16:42:42.131Z,34.63
2019-05-29T16:45:09.916Z,36.17
2019-05-29T16:47:37.604Z,34.59
2019-05-29T16:50:05.371Z,34.83
2019-05-29T16:52:38.184Z,35.65
2019-05-29T16:55:05.850Z,34.44
2019-05-29T16:57:33.742Z,34.88
2019-05-29T17:00:01.731Z,35.96
2019-05-29T17:02:29.723Z,34.61
2019-05-29T17:04:58.339Z,34.82
2019-05-29T17:07:26.114Z,36.34
2019-05-29T17:09:53.775Z,35.69
2019-05-29T17:12:22.496Z,35.07
2019-05-29T17:14:50.375Z,36.37
2019-05-29T17:17:18.638Z,36.64
2019-05-29T17:19:46.452Z,35.11
2019-05-29T17:22:14.558Z,35.11
2019-05-29T17:24:42.385Z,35.62
2019-05-29T17:27:10.158Z,35.37
2019-05-29T17:29:37.840Z,36.09
2019-05-29T17:32:05.604Z,36.09
2019-05-29T17:34:33.275Z,34.64
2019-05-29T17:37:00.957Z,34.24
2019-05-29T17:39:28.667Z,35.43
2019-05-29T17:41:56.328Z,37.25
2019-05-29T17:44:23.996Z,34.89
2019-05-29T17:46:51.751Z,36.28
2019-05-29T17:49:22.589Z,35.72
2019-05-29T17:51:49.241Z,35.28
2019-05-29T17:54:17.888Z,36.57
2019-05-29T17:56:45.672Z,37.03
2019-05-29T17:59:13.336Z,36.40
2019-05-29T18:01:40.989Z,36.83
2019-05-29T18:04:09.145Z,38.08
2019-05-29T18:06:36.792Z,38.41
2019-05-29T18:09:05.548Z,37.00
2019-05-29T18:11:33.196Z,36.81
2019-05-29T18:14:05.073Z,36.51
2019-05-29T18:16:30.238Z,37.93
2019-05-29T18:18:57.893Z,39.25
2019-05-29T18:21:25.799Z,39.25
2019-05-29T18:23:53.755Z,38.13
2019-05-29T18:26:22.047Z,38.23
2019-05-29T18:28:49.781Z,40.54
2019-05-29T18:31:18.348Z,37.67
2019-05-29T18:33:46.632Z,38.72
2019-05-29T18:36:14.283Z,40.76
2019-05-29T18:38:41.939Z,37.68
2019-05-29T18:41:09.648Z,40.41
2019-05-29T18:43:38.340Z,39.02
2019-05-29T18:46:06.022Z,42.08
2019-05-29T18:48:33.729Z,41.28
2019-05-29T18:51:01.385Z,42.68
2019-05-29T18:53:29.113Z,41.77
2019-05-29T18:55:56.768Z,42.58
2019-05-29T18:58:24.439Z,44.24
2019-05-29T19:00:52.276Z,44.24
2019-05-29T19:03:21.285Z,45.85
2019-05-29T19:05:49.088Z,46.76
2019-05-29T19:08:16.747Z,45.87
2019-05-29T19:10:44.403Z,47.19
2019-05-29T19:13:12.070Z,48.88
2019-05-29T19:15:39.723Z,49.60
2019-05-29T19:18:07.364Z,49.97
2019-05-29T19:20:35.152Z,50.11
2019-05-29T19:23:03.009Z,51.60
2019-05-29T19:25:30.898Z,52.71
2019-05-29T19:27:58.730Z,52.71
2019-05-29T19:30:26.893Z,52.80
2019-05-29T19:32:54.806Z,51.44
2019-05-29T19:35:23.519Z,50.33
2019-05-29T19:37:51.481Z,53.56
2019-05-29T19:40:19.443Z,55.15
2019-05-29T19:42:47.267Z,55.77
2019-05-29T19:45:15.406Z,56.52
2019-05-29T19:47:43.061Z,56.36
2019-05-29T19:50:11.626Z,53.56
2019-05-29T19:52:39.463Z,56.46
2019-05-29T19:55:07.166Z,55.79
2019-05-29T19:57:53.916Z,57.36
2019-05-29T20:00:04.624Z,57.34
2019-05-29T20:02:32.719Z,57.52
2019-05-29T20:05:00.515Z,57.78
2019-05-29T20:07:28.967Z,58.26
2019-05-29T20:09:56.690Z,58.26
2019-05-29T20:12:24.346Z,56.92
2019-05-29T20:14:51.996Z,57.04
2019-05-29T20:17:19.662Z,56.29
2019-05-29T20:19:47.311Z,59.18
2019-05-29T20:22:14.971Z,61.17
2019-05-29T20:24:42.644Z,61.30
2019-05-29T20:27:10.297Z,60.51
2019-05-29T20:29:38.536Z,61.48
2019-05-29T20:32:06.488Z,60.69
2019-05-29T20:34:34.682Z,60.39
2019-05-29T20:37:02.428Z,60.49
2019-05-29T20:39:30.239Z,62.09
2019-05-29T20:41:58.035Z,62.38
2019-05-29T20:44:25.811Z,62.28
2019-05-29T20:46:53.528Z,61.49
2019-05-29T20:49:21.177Z,61.93
2019-05-29T20:51:48.843Z,61.55
2019-05-29T20:54:16.499Z,63.25
2019-05-29T20:56:44.157Z,63.62
2019-05-29T20:59:11.803Z,64.50
2019-05-29T21:01:44.226Z,64.17
2019-05-29T21:04:08.869Z,64.52
2019-05-29T21:06:36.630Z,63.65
2019-05-29T21:09:04.901Z,63.77
2019-05-29T21:11:33.325Z,64.74
2019-05-29T21:14:01.105Z,64.74
2019-05-29T21:16:28.747Z,65.71
2019-05-29T21:18:56.404Z,64.91
2019-05-29T21:21:24.063Z,65.32
2019-05-29T21:23:51.707Z,65.29
2019-05-29T21:26:19.368Z,65.00
2019-05-29T21:28:50.681Z,65.72
2019-05-29T21:31:16.400Z,65.76
2019-05-29T21:33:47.308Z,66.88
2019-05-29T21:36:13.491Z,68.05
2019-05-29T21:38:42.222Z,68.16
2019-05-29T21:41:10.074Z,68.54
2019-05-29T21:43:38.616Z,68.40
2019-05-29T21:46:06.459Z,68.49
2019-05-29T21:48:34.195Z,68.72
2019-05-29T21:51:01.843Z,69.50
2019-05-29T21:53:29.510Z,69.71
2019-05-29T21:55:57.163Z,70.53
2019-05-29T21:58:24.861Z,70.50
2019-05-29T22:00:53.041Z,69.81
2019-05-29T22:03:20.696Z,69.89
2019-05-29T22:05:48.855Z,70.31
2019-05-29T22:08:16.616Z,71.10
2019-05-29T22:10:44.285Z,70.92
2019-05-29T22:13:11.943Z,71.93
2019-05-29T22:15:39.595Z,73.20
2019-05-29T22:18:07.248Z,72.66
2019-05-29T22:20:34.896Z,72.43
2019-05-29T22:23:02.974Z,72.68
2019-05-29T22:25:34.260Z,72.77
2019-05-29T22:28:01.635Z,73.32
2019-05-29T22:30:29.582Z,73.46
2019-05-29T22:32:57.499Z,72.63
2019-05-29T22:35:25.198Z,72.37
2019-05-29T22:37:53.498Z,73.67
2019-05-29T22:40:21.401Z,73.77
2019-05-29T22:42:49.057Z,73.64
2019-05-29T22:45:16.720Z,74.07
2019-05-29T22:47:44.396Z,73.50
2019-05-29T22:50:12.057Z,73.08
2019-05-29T22:52:39.708Z,75.54
2019-05-29T22:55:07.384Z,75.52
2019-05-29T22:57:35.022Z,76.95
2019-05-29T23:00:02.684Z,76.02
2019-05-29T23:02:30.328Z,76.13
2019-05-29T23:04:58.453Z,77.39
2019-05-29T23:07:26.325Z,76.27
2019-05-29T23:09:54.342Z,76.10
2019-05-29T23:12:22.177Z,75.79
2019-05-29T23:14:49.824Z,76.08
2019-05-29T23:17:17.474Z,76.99
2019-05-29T23:19:45.130Z,76.67
2019-05-29T23:22:12.791Z,76.76
2019-05-29T23:24:40.666Z,77.00
2019-05-29T23:27:08.303Z,76.71
2019-05-29T23:29:48.451Z,76.63
2019-05-29T23:32:05.431Z,76.89
2019-05-29T23:34:33.083Z,76.36
2019-05-29T23:37:01.312Z,76.18
2019-05-29T23:39:29.368Z,75.84
2019-05-29T23:41:57.286Z,77.79
2019-05-29T23:44:25.065Z,78.52
2019-05-29T23:46:53.356Z,78.11
2019-05-29T23:49:21.089Z,77.96
2019-05-29T23:51:48.743Z,77.62
2019-05-29T23:54:16.641Z,78.16
2019-05-29T23:56:44.369Z,79.25
2019-05-29T23:59:12.020Z,78.16
